sensor_id;sensor_type;location;lat;lon;timestamp;P1;durP1;ratioP1;P2;durP2;ratioP2
29218;SDS011;16421;50.202;7.852;2023-02-22T00:00:38;8.52;;;4.30;;
29218;SDS011;16421;50.202;7.852;2023-02-22T00:05:44;5.65;;;3.35;;
29218;SDS011;16421;50.202;7.852;2023-02-22T00:10:49;6.72;;;3.35;;
29218;SDS011;16421;50.202;7.852;2023-02-22T00:15:53;6.05;;;3.70;;
29218;SDS011;16421;50.202;7.852;2023-02-22T00:20:57;7.35;;;3.53;;
29218;SDS011;16421;50.202;7.852;2023-02-22T00:26:03;6.30;;;3.40;;
29218;SDS011;16421;50.202;7.852;2023-02-22T00:31:10;5.18;;;2.58;;
29218;SDS011;16421;50.202;7.852;2023-02-22T00:36:16;3.83;;;3.08;;
29218;SDS011;16421;50.202;7.852;2023-02-22T00:41:20;4.38;;;2.92;;
29218;SDS011;16421;50.202;7.852;2023-02-22T00:46:24;4.03;;;2.72;;
29218;SDS011;16421;50.202;7.852;2023-02-22T00:51:27;6.82;;;3.10;;
29218;SDS011;16421;50.202;7.852;2023-02-22T00:56:32;5.88;;;3.10;;
29218;SDS011;16421;50.202;7.852;2023-02-22T01:01:36;4.32;;;2.60;;
29218;SDS011;16421;50.202;7.852;2023-02-22T01:06:41;5.03;;;3.22;;
29218;SDS011;16421;50.202;7.852;2023-02-22T01:11:49;4.03;;;2.70;;
29218;SDS011;16421;50.202;7.852;2023-02-22T01:16:57;5.22;;;3.08;;
29218;SDS011;16421;50.202;7.852;2023-02-22T01:22:00;4.78;;;3.00;;
29218;SDS011;16421;50.202;7.852;2023-02-22T01:27:07;4.40;;;2.90;;
29218;SDS011;16421;50.202;7.852;2023-02-22T01:32:11;6.17;;;2.80;;
29218;SDS011;16421;50.202;7.852;2023-02-22T01:37:14;4.88;;;3.10;;
29218;SDS011;16421;50.202;7.852;2023-02-22T01:42:19;6.55;;;2.88;;
29218;SDS011;16421;50.202;7.852;2023-02-22T01:47:24;3.75;;;2.78;;
29218;SDS011;16421;50.202;7.852;2023-02-22T01:52:27;4.32;;;2.92;;
29218;SDS011;16421;50.202;7.852;2023-02-22T01:57:33;5.47;;;3.65;;
29218;SDS011;16421;50.202;7.852;2023-02-22T02:02:40;5.30;;;3.00;;
29218;SDS011;16421;50.202;7.852;2023-02-22T02:07:46;4.90;;;3.33;;
29218;SDS011;16421;50.202;7.852;2023-02-22T02:12:55;3.42;;;2.70;;
29218;SDS011;16421;50.202;7.852;2023-02-22T02:18:00;5.88;;;3.22;;
29218;SDS011;16421;50.202;7.852;2023-02-22T02:23:07;5.15;;;3.05;;
29218;SDS011;16421;50.202;7.852;2023-02-22T02:34:17;5.57;;;2.72;;
29218;SDS011;16421;50.202;7.852;2023-02-22T02:39:26;5.07;;;3.28;;
29218;SDS011;16421;50.202;7.852;2023-02-22T02:44:34;4.40;;;3.15;;
29218;SDS011;16421;50.202;7.852;2023-02-22T02:49:43;4.95;;;2.90;;
29218;SDS011;16421;50.202;7.852;2023-02-22T02:54:52;6.38;;;3.30;;
29218;SDS011;16421;50.202;7.852;2023-02-22T02:59:58;4.82;;;3.45;;
29218;SDS011;16421;50.202;7.852;2023-02-22T03:05:10;4.80;;;2.97;;
29218;SDS011;16421;50.202;7.852;2023-02-22T03:10:37;5.03;;;3.33;;
29218;SDS011;16421;50.202;7.852;2023-02-22T03:15:54;4.47;;;2.72;;
29218;SDS011;16421;50.202;7.852;2023-02-22T03:21:09;4.13;;;2.95;;
29218;SDS011;16421;50.202;7.852;2023-02-22T03:26:20;4.57;;;3.17;;
29218;SDS011;16421;50.202;7.852;2023-02-22T03:31:31;4.57;;;2.97;;
29218;SDS011;16421;50.202;7.852;2023-02-22T03:36:40;5.85;;;3.40;;
29218;SDS011;16421;50.202;7.852;2023-02-22T03:41:47;6.65;;;3.70;;
29218;SDS011;16421;50.202;7.852;2023-02-22T03:46:56;6.15;;;3.20;;
29218;SDS011;16421;50.202;7.852;2023-02-22T03:52:06;6.00;;;3.95;;
29218;SDS011;16421;50.202;7.852;2023-02-22T03:57:15;6.40;;;3.30;;
29218;SDS011;16421;50.202;7.852;2023-02-22T04:02:27;4.72;;;3.45;;
29218;SDS011;16421;50.202;7.852;2023-02-22T04:07:33;6.80;;;3.88;;
29218;SDS011;16421;50.202;7.852;2023-02-22T04:12:36;8.23;;;4.00;;
29218;SDS011;16421;50.202;7.852;2023-02-22T04:17:42;5.20;;;3.53;;
29218;SDS011;16421;50.202;7.852;2023-02-22T04:22:49;6.68;;;3.33;;
29218;SDS011;16421;50.202;7.852;2023-02-22T04:27:53;5.63;;;3.60;;
29218;SDS011;16421;50.202;7.852;2023-02-22T04:33:11;5.88;;;3.47;;
29218;SDS011;16421;50.202;7.852;2023-02-22T04:38:17;6.63;;;3.73;;
29218;SDS011;16421;50.202;7.852;2023-02-22T04:43:21;5.80;;;3.55;;
29218;SDS011;16421;50.202;7.852;2023-02-22T04:48:28;6.97;;;3.40;;
29218;SDS011;16421;50.202;7.852;2023-02-22T04:53:33;6.38;;;3.40;;
29218;SDS011;16421;50.202;7.852;2023-02-22T04:58:37;4.80;;;3.15;;
29218;SDS011;16421;50.202;7.852;2023-02-22T05:03:41;5.80;;;3.20;;
29218;SDS011;16421;50.202;7.852;2023-02-22T05:08:46;4.93;;;3.38;;
29218;SDS011;16421;50.202;7.852;2023-02-22T05:13:50;5.93;;;3.05;;
29218;SDS011;16421;50.202;7.852;2023-02-22T05:18:53;6.40;;;3.63;;
29218;SDS011;16421;50.202;7.852;2023-02-22T05:23:58;5.75;;;3.15;;
29218;SDS011;16421;50.202;7.852;2023-02-22T05:29:02;7.45;;;3.70;;
29218;SDS011;16421;50.202;7.852;2023-02-22T05:34:05;7.00;;;3.50;;
29218;SDS011;16421;50.202;7.852;2023-02-22T05:39:10;6.47;;;3.50;;
29218;SDS011;16421;50.202;7.852;2023-02-22T05:44:14;5.88;;;3.58;;
29218;SDS011;16421;50.202;7.852;2023-02-22T05:49:17;5.65;;;3.75;;
29218;SDS011;16421;50.202;7.852;2023-02-22T05:54:22;12.90;;;4.22;;
29218;SDS011;16421;50.202;7.852;2023-02-22T05:59:25;5.15;;;3.53;;
29218;SDS011;16421;50.202;7.852;2023-02-22T06:04:29;7.07;;;3.67;;
29218;SDS011;16421;50.202;7.852;2023-02-22T06:09:34;4.80;;;3.15;;
29218;SDS011;16421;50.202;7.852;2023-02-22T06:14:38;5.40;;;3.55;;
29218;SDS011;16421;50.202;7.852;2023-02-22T06:19:46;5.75;;;4.05;;
29218;SDS011;16421;50.202;7.852;2023-02-22T06:24:51;4.63;;;3.28;;
29218;SDS011;16421;50.202;7.852;2023-02-22T06:29:55;4.70;;;3.42;;
29218;SDS011;16421;50.202;7.852;2023-02-22T06:34:59;4.38;;;2.80;;
29218;SDS011;16421;50.202;7.852;2023-02-22T06:40:04;4.65;;;3.20;;
29218;SDS011;16421;50.202;7.852;2023-02-22T06:45:08;5.57;;;3.13;;
29218;SDS011;16421;50.202;7.852;2023-02-22T06:50:17;5.38;;;3.33;;
29218;SDS011;16421;50.202;7.852;2023-02-22T06:55:25;5.03;;;2.97;;
29218;SDS011;16421;50.202;7.852;2023-02-22T07:00:30;4.25;;;2.95;;
29218;SDS011;16421;50.202;7.852;2023-02-22T07:05:34;5.55;;;3.50;;
29218;SDS011;16421;50.202;7.852;2023-02-22T07:10:40;4.07;;;2.35;;
29218;SDS011;16421;50.202;7.852;2023-02-22T07:15:43;5.55;;;3.17;;
29218;SDS011;16421;50.202;7.852;2023-02-22T07:20:47;6.57;;;2.85;;
29218;SDS011;16421;50.202;7.852;2023-02-22T07:25:52;4.45;;;3.00;;
29218;SDS011;16421;50.202;7.852;2023-02-22T07:30:56;5.10;;;3.00;;
29218;SDS011;16421;50.202;7.852;2023-02-22T07:36:00;3.80;;;2.45;;
29218;SDS011;16421;50.202;7.852;2023-02-22T07:41:05;4.05;;;2.78;;
29218;SDS011;16421;50.202;7.852;2023-02-22T07:46:10;3.90;;;2.72;;
29218;SDS011;16421;50.202;7.852;2023-02-22T07:51:16;4.68;;;3.00;;
29218;SDS011;16421;50.202;7.852;2023-02-22T07:56:23;2.50;;;2.13;;
29218;SDS011;16421;50.202;7.852;2023-02-22T08:01:26;2.90;;;2.47;;
29218;SDS011;16421;50.202;7.852;2023-02-22T08:06:30;3.30;;;2.55;;
29218;SDS011;16421;50.202;7.852;2023-02-22T08:11:35;2.80;;;2.08;;
29218;SDS011;16421;50.202;7.852;2023-02-22T08:16:42;2.78;;;2.47;;
29218;SDS011;16421;50.202;7.852;2023-02-22T08:21:45;2.95;;;2.63;;
29218;SDS011;16421;50.202;7.852;2023-02-22T08:26:50;3.08;;;2.08;;
29218;SDS011;16421;50.202;7.852;2023-02-22T08:31:55;3.15;;;2.63;;
29218;SDS011;16421;50.202;7.852;2023-02-22T08:36:59;3.35;;;2.78;;
29218;SDS011;16421;50.202;7.852;2023-02-22T08:42:05;3.63;;;2.30;;
29218;SDS011;16421;50.202;7.852;2023-02-22T08:47:10;2.83;;;2.50;;
29218;SDS011;16421;50.202;7.852;2023-02-22T08:57:23;3.15;;;2.33;;
29218;SDS011;16421;50.202;7.852;2023-02-22T09:02:27;2.15;;;1.73;;
29218;SDS011;16421;50.202;7.852;2023-02-22T09:07:30;2.42;;;1.80;;
29218;SDS011;16421;50.202;7.852;2023-02-22T09:12:37;2.38;;;1.77;;
29218;SDS011;16421;50.202;7.852;2023-02-22T09:17:40;2.55;;;1.80;;
29218;SDS011;16421;50.202;7.852;2023-02-22T09:22:46;2.65;;;1.77;;
29218;SDS011;16421;50.202;7.852;2023-02-22T09:27:52;3.95;;;2.05;;
29218;SDS011;16421;50.202;7.852;2023-02-22T09:32:57;2.28;;;2.08;;
29218;SDS011;16421;50.202;7.852;2023-02-22T09:38:03;1.47;;;1.37;;
29218;SDS011;16421;50.202;7.852;2023-02-22T09:43:11;1.60;;;1.43;;
29218;SDS011;16421;50.202;7.852;2023-02-22T09:48:33;2.00;;;1.80;;
29218;SDS011;16421;50.202;7.852;2023-02-22T09:53:41;2.13;;;1.92;;
29218;SDS011;16421;50.202;7.852;2023-02-22T09:58:51;2.20;;;1.90;;
29218;SDS011;16421;50.202;7.852;2023-02-22T10:03:59;2.20;;;2.00;;
29218;SDS011;16421;50.202;7.852;2023-02-22T10:09:08;2.30;;;2.00;;
29218;SDS011;16421;50.202;7.852;2023-02-22T10:14:20;2.47;;;2.08;;
29218;SDS011;16421;50.202;7.852;2023-02-22T10:19:37;4.68;;;3.28;;
29218;SDS011;16421;50.202;7.852;2023-02-22T10:24:55;4.47;;;2.30;;
29218;SDS011;16421;50.202;7.852;2023-02-22T10:30:04;3.13;;;2.55;;
29218;SDS011;16421;50.202;7.852;2023-02-22T10:35:25;4.45;;;3.17;;
29218;SDS011;16421;50.202;7.852;2023-02-22T10:40:30;3.95;;;3.17;;
29218;SDS011;16421;50.202;7.852;2023-02-22T10:45:35;4.97;;;2.95;;
29218;SDS011;16421;50.202;7.852;2023-02-22T10:50:39;3.08;;;2.25;;
29218;SDS011;16421;50.202;7.852;2023-02-22T11:01:18;5.35;;;4.38;;
29218;SDS011;16421;50.202;7.852;2023-02-22T11:06:23;5.97;;;4.70;;
29218;SDS011;16421;50.202;7.852;2023-02-22T11:11:27;7.35;;;4.47;;
29218;SDS011;16421;50.202;7.852;2023-02-22T11:16:33;5.25;;;4.00;;
29218;SDS011;16421;50.202;7.852;2023-02-22T11:21:41;5.32;;;2.70;;
29218;SDS011;16421;50.202;7.852;2023-02-22T11:26:46;5.63;;;4.40;;
29218;SDS011;16421;50.202;7.852;2023-02-22T11:31:55;6.00;;;4.07;;
29218;SDS011;16421;50.202;7.852;2023-02-22T11:37:14;5.50;;;3.90;;
29218;SDS011;16421;50.202;7.852;2023-02-22T11:42:22;3.58;;;2.85;;
29218;SDS011;16421;50.202;7.852;2023-02-22T11:47:27;6.18;;;4.00;;
29218;SDS011;16421;50.202;7.852;2023-02-22T11:52:32;5.30;;;3.30;;
29218;SDS011;16421;50.202;7.852;2023-02-22T11:57:51;4.37;;;3.37;;
29218;SDS011;16421;50.202;7.852;2023-02-22T12:03:09;4.97;;;3.55;;
29218;SDS011;16421;50.202;7.852;2023-02-22T12:08:33;7.07;;;4.80;;
29218;SDS011;16421;50.202;7.852;2023-02-22T12:13:49;6.75;;;4.10;;
29218;SDS011;16421;50.202;7.852;2023-02-22T12:19:10;9.20;;;3.60;;
29218;SDS011;16421;50.202;7.852;2023-02-22T12:24:21;4.80;;;3.22;;
29218;SDS011;16421;50.202;7.852;2023-02-22T12:29:29;5.93;;;3.47;;
29218;SDS011;16421;50.202;7.852;2023-02-22T12:34:41;5.78;;;3.33;;
29218;SDS011;16421;50.202;7.852;2023-02-22T12:39:54;4.25;;;2.80;;
29218;SDS011;16421;50.202;7.852;2023-02-22T12:45:10;7.10;;;4.50;;
29218;SDS011;16421;50.202;7.852;2023-02-22T12:50:20;7.97;;;5.30;;
29218;SDS011;16421;50.202;7.852;2023-02-22T12:55:28;6.57;;;4.70;;
29218;SDS011;16421;50.202;7.852;2023-02-22T13:00:37;7.07;;;4.47;;
29218;SDS011;16421;50.202;7.852;2023-02-22T13:05:46;5.65;;;3.85;;
29218;SDS011;16421;50.202;7.852;2023-02-22T13:11:00;5.35;;;3.42;;
29218;SDS011;16421;50.202;7.852;2023-02-22T13:16:14;4.85;;;3.25;;
29218;SDS011;16421;50.202;7.852;2023-02-22T13:21:30;5.80;;;3.70;;
29218;SDS011;16421;50.202;7.852;2023-02-22T13:26:44;5.07;;;3.60;;
29218;SDS011;16421;50.202;7.852;2023-02-22T13:31:58;7.65;;;4.75;;
29218;SDS011;16421;50.202;7.852;2023-02-22T13:42:56;10.00;;;5.40;;
29218;SDS011;16421;50.202;7.852;2023-02-22T13:53:57;8.75;;;5.90;;
29218;SDS011;16421;50.202;7.852;2023-02-22T13:59:05;9.38;;;5.63;;
29218;SDS011;16421;50.202;7.852;2023-02-22T14:09:51;8.18;;;5.97;;
29218;SDS011;16421;50.202;7.852;2023-02-22T14:15:07;8.07;;;5.40;;
29218;SDS011;16421;50.202;7.852;2023-02-22T14:20:30;9.68;;;6.97;;
29218;SDS011;16421;50.202;7.852;2023-02-22T14:25:38;8.55;;;6.20;;
29218;SDS011;16421;50.202;7.852;2023-02-22T14:30:43;8.77;;;5.35;;
29218;SDS011;16421;50.202;7.852;2023-02-22T14:35:47;6.90;;;4.97;;
29218;SDS011;16421;50.202;7.852;2023-02-22T14:40:54;11.25;;;6.40;;
29218;SDS011;16421;50.202;7.852;2023-02-22T14:46:00;8.52;;;5.40;;
29218;SDS011;16421;50.202;7.852;2023-02-22T14:51:06;8.00;;;5.27;;
29218;SDS011;16421;50.202;7.852;2023-02-22T14:56:24;10.10;;;5.90;;
29218;SDS011;16421;50.202;7.852;2023-02-22T15:01:32;6.85;;;4.57;;
29218;SDS011;16421;50.202;7.852;2023-02-22T15:06:57;5.88;;;3.45;;
29218;SDS011;16421;50.202;7.852;2023-02-22T15:12:15;5.57;;;3.60;;
29218;SDS011;16421;50.202;7.852;2023-02-22T15:17:25;8.48;;;4.78;;
29218;SDS011;16421;50.202;7.852;2023-02-22T15:22:31;6.93;;;3.88;;
29218;SDS011;16421;50.202;7.852;2023-02-22T15:27:41;4.95;;;3.67;;
29218;SDS011;16421;50.202;7.852;2023-02-22T15:32:48;6.03;;;3.63;;
29218;SDS011;16421;50.202;7.852;2023-02-22T15:38:05;7.15;;;3.95;;
29218;SDS011;16421;50.202;7.852;2023-02-22T15:43:20;5.15;;;3.63;;
29218;SDS011;16421;50.202;7.852;2023-02-22T15:48:26;9.32;;;4.88;;
29218;SDS011;16421;50.202;7.852;2023-02-22T15:53:34;6.60;;;4.22;;
29218;SDS011;16421;50.202;7.852;2023-02-22T15:58:45;7.25;;;4.82;;
29218;SDS011;16421;50.202;7.852;2023-02-22T16:03:50;5.70;;;4.03;;
29218;SDS011;16421;50.202;7.852;2023-02-22T16:08:55;6.32;;;4.03;;
29218;SDS011;16421;50.202;7.852;2023-02-22T16:14:04;8.27;;;4.53;;
29218;SDS011;16421;50.202;7.852;2023-02-22T16:19:27;6.57;;;4.45;;
29218;SDS011;16421;50.202;7.852;2023-02-22T16:24:36;7.38;;;4.85;;
29218;SDS011;16421;50.202;7.852;2023-02-22T16:29:41;5.93;;;4.00;;
29218;SDS011;16421;50.202;7.852;2023-02-22T16:34:45;7.50;;;4.37;;
29218;SDS011;16421;50.202;7.852;2023-02-22T16:39:51;5.45;;;4.05;;
29218;SDS011;16421;50.202;7.852;2023-02-22T16:44:56;6.35;;;3.92;;
29218;SDS011;16421;50.202;7.852;2023-02-22T16:50:02;7.72;;;4.32;;
29218;SDS011;16421;50.202;7.852;2023-02-22T16:55:08;6.22;;;3.90;;
29218;SDS011;16421;50.202;7.852;2023-02-22T17:00:15;6.45;;;4.30;;
29218;SDS011;16421;50.202;7.852;2023-02-22T17:05:21;6.78;;;4.45;;
29218;SDS011;16421;50.202;7.852;2023-02-22T17:10:25;7.30;;;4.15;;
29218;SDS011;16421;50.202;7.852;2023-02-22T17:15:31;11.25;;;3.90;;
29218;SDS011;16421;50.202;7.852;2023-02-22T17:20:35;6.53;;;4.68;;
29218;SDS011;16421;50.202;7.852;2023-02-22T17:25:39;6.72;;;4.70;;
29218;SDS011;16421;50.202;7.852;2023-02-22T17:30:46;7.72;;;5.20;;
29218;SDS011;16421;50.202;7.852;2023-02-22T17:35:50;7.32;;;5.30;;
29218;SDS011;16421;50.202;7.852;2023-02-22T17:40:55;11.13;;;5.43;;
29218;SDS011;16421;50.202;7.852;2023-02-22T17:46:00;7.78;;;5.30;;
29218;SDS011;16421;50.202;7.852;2023-02-22T17:51:09;9.65;;;6.25;;
29218;SDS011;16421;50.202;7.852;2023-02-22T17:56:14;10.25;;;5.88;;
29218;SDS011;16421;50.202;7.852;2023-02-22T18:01:22;6.05;;;4.55;;
29218;SDS011;16421;50.202;7.852;2023-02-22T18:06:28;8.38;;;5.57;;
29218;SDS011;16421;50.202;7.852;2023-02-22T18:11:33;10.40;;;6.10;;
29218;SDS011;16421;50.202;7.852;2023-02-22T18:16:38;11.80;;;5.85;;
29218;SDS011;16421;50.202;7.852;2023-02-22T18:21:42;10.35;;;6.45;;
29218;SDS011;16421;50.202;7.852;2023-02-22T18:26:49;15.85;;;8.57;;
29218;SDS011;16421;50.202;7.852;2023-02-22T18:31:54;13.52;;;8.35;;
29218;SDS011;16421;50.202;7.852;2023-02-22T18:36:57;17.40;;;9.68;;
29218;SDS011;16421;50.202;7.852;2023-02-22T18:42:01;23.05;;;11.40;;
29218;SDS011;16421;50.202;7.852;2023-02-22T18:47:06;18.88;;;11.05;;
29218;SDS011;16421;50.202;7.852;2023-02-22T18:52:10;21.02;;;11.52;;
29218;SDS011;16421;50.202;7.852;2023-02-22T18:57:13;20.38;;;9.73;;
29218;SDS011;16421;50.202;7.852;2023-02-22T19:02:18;19.17;;;10.02;;
29218;SDS011;16421;50.202;7.852;2023-02-22T19:07:22;16.23;;;8.98;;
29218;SDS011;16421;50.202;7.852;2023-02-22T19:12:26;15.60;;;9.40;;
29218;SDS011;16421;50.202;7.852;2023-02-22T19:17:34;12.85;;;7.20;;
29218;SDS011;16421;50.202;7.852;2023-02-22T19:22:41;10.35;;;6.72;;
29218;SDS011;16421;50.202;7.852;2023-02-22T19:27:45;12.15;;;7.68;;
29218;SDS011;16421;50.202;7.852;2023-02-22T19:32:52;11.05;;;6.72;;
29218;SDS011;16421;50.202;7.852;2023-02-22T19:37:56;11.13;;;7.03;;
29218;SDS011;16421;50.202;7.852;2023-02-22T19:42:59;12.13;;;7.25;;
29218;SDS011;16421;50.202;7.852;2023-02-22T19:48:04;12.02;;;7.03;;
29218;SDS011;16421;50.202;7.852;2023-02-22T19:53:08;10.48;;;6.43;;
29218;SDS011;16421;50.202;7.852;2023-02-22T19:58:14;12.00;;;7.25;;
29218;SDS011;16421;50.202;7.852;2023-02-22T20:03:19;11.98;;;7.63;;
29218;SDS011;16421;50.202;7.852;2023-02-22T20:08:26;12.82;;;7.28;;
29218;SDS011;16421;50.202;7.852;2023-02-22T20:13:29;14.35;;;7.85;;
29218;SDS011;16421;50.202;7.852;2023-02-22T20:18:35;12.30;;;7.75;;
29218;SDS011;16421;50.202;7.852;2023-02-22T20:23:39;13.93;;;7.00;;
29218;SDS011;16421;50.202;7.852;2023-02-22T20:28:44;11.55;;;6.63;;
29218;SDS011;16421;50.202;7.852;2023-02-22T20:33:51;11.25;;;6.35;;
29218;SDS011;16421;50.202;7.852;2023-02-22T20:38:56;11.73;;;7.30;;
29218;SDS011;16421;50.202;7.852;2023-02-22T20:44:01;10.77;;;6.43;;
29218;SDS011;16421;50.202;7.852;2023-02-22T20:49:09;11.90;;;7.20;;
29218;SDS011;16421;50.202;7.852;2023-02-22T20:54:14;10.48;;;6.45;;
29218;SDS011;16421;50.202;7.852;2023-02-22T20:59:18;13.48;;;6.43;;
29218;SDS011;16421;50.202;7.852;2023-02-22T21:04:23;9.38;;;6.43;;
29218;SDS011;16421;50.202;7.852;2023-02-22T21:09:29;10.93;;;7.10;;
29218;SDS011;16421;50.202;7.852;2023-02-22T21:14:34;11.13;;;6.47;;
29218;SDS011;16421;50.202;7.852;2023-02-22T21:19:39;9.10;;;6.15;;
29218;SDS011;16421;50.202;7.852;2023-02-22T21:24:43;9.18;;;6.10;;
29218;SDS011;16421;50.202;7.852;2023-02-22T21:29:47;9.15;;;6.10;;
29218;SDS011;16421;50.202;7.852;2023-02-22T21:34:53;9.65;;;5.10;;
29218;SDS011;16421;50.202;7.852;2023-02-22T21:39:56;9.63;;;5.63;;
29218;SDS011;16421;50.202;7.852;2023-02-22T21:45:00;9.73;;;6.13;;
29218;SDS011;16421;50.202;7.852;2023-02-22T21:50:06;8.73;;;5.72;;
29218;SDS011;16421;50.202;7.852;2023-02-22T21:55:10;10.13;;;5.97;;
29218;SDS011;16421;50.202;7.852;2023-02-22T22:00:14;9.43;;;5.47;;
29218;SDS011;16421;50.202;7.852;2023-02-22T22:05:20;9.07;;;5.70;;
29218;SDS011;16421;50.202;7.852;2023-02-22T22:10:32;9.35;;;5.90;;
29218;SDS011;16421;50.202;7.852;2023-02-22T22:15:37;10.07;;;6.55;;
29218;SDS011;16421;50.202;7.852;2023-02-22T22:20:42;8.82;;;5.40;;
29218;SDS011;16421;50.202;7.852;2023-02-22T22:25:45;9.57;;;5.88;;
29218;SDS011;16421;50.202;7.852;2023-02-22T22:30:51;8.18;;;5.28;;
29218;SDS011;16421;50.202;7.852;2023-02-22T22:35:56;7.40;;;5.13;;
29218;SDS011;16421;50.202;7.852;2023-02-22T22:41:03;9.10;;;5.13;;
29218;SDS011;16421;50.202;7.852;2023-02-22T22:46:07;8.30;;;5.20;;
29218;SDS011;16421;50.202;7.852;2023-02-22T22:51:14;7.10;;;4.90;;
29218;SDS011;16421;50.202;7.852;2023-02-22T22:56:22;9.52;;;5.07;;
29218;SDS011;16421;50.202;7.852;2023-02-22T23:01:28;8.07;;;5.07;;
29218;SDS011;16421;50.202;7.852;2023-02-22T23:06:36;11.02;;;6.55;;
29218;SDS011;16421;50.202;7.852;2023-02-22T23:11:41;12.05;;;6.40;;
29218;SDS011;16421;50.202;7.852;2023-02-22T23:16:46;9.02;;;5.78;;
29218;SDS011;16421;50.202;7.852;2023-02-22T23:21:52;9.20;;;6.15;;
29218;SDS011;16421;50.202;7.852;2023-02-22T23:26:59;11.70;;;5.85;;
29218;SDS011;16421;50.202;7.852;2023-02-22T23:32:07;9.55;;;5.68;;
29218;SDS011;16421;50.202;7.852;2023-02-22T23:37:12;9.02;;;5.68;;
29218;SDS011;16421;50.202;7.852;2023-02-22T23:42:16;9.30;;;5.63;;
29218;SDS011;16421;50.202;7.852;2023-02-22T23:47:19;10.10;;;5.63;;
29218;SDS011;16421;50.202;7.852;2023-02-22T23:52:26;8.35;;;5.43;;
29218;SDS011;16421;50.202;7.852;2023-02-22T23:57:30;10.95;;;6.30;;
